Stena Germanica — SKPZ — position and weather

sailwx.info

Track history (hours):
 
Tides and Currents Weather Stations Pressure Air Temp Water Temp Dewpoint Dewpoint Depression Visibility Wind Speed Wind Dir Waves Ship Positions

Stena Germanica

Last reported at 2016-Jun-26 11:19 UTC. Time now 2016-Jun-26 15:39 UTC.
Position N 55°07' E 018°09'.

Length 176 m; draft 6.7 m.

Type: Ship (hazmat cat A). MMSI: 265292000.

Date/timePositionNaut miles runAvg speedWind from/ knotsBaromVisibWave heightAir tempDewpointWater temp
2016-Jun-26 11:19N 55°07' E 018°09'1418.2
2016-Jun-26 10:33N 54°59' E 018°29'1817.8
2016-Jun-26 09:33N 54°46' E 018°50'1414.3
2016-Jun-26 08:34N 54°32' E 018°47'10 9.3
2016-Jun-26 07:31N 54°33' E 018°30'0 0.0
2016-Jun-26 06:31N 54°33' E 018°30'4 3.7
2016-Jun-26 05:34N 54°32' E 018°36'1313.4
2016-Jun-26 04:33N 54°40' E 018°56'1717.2
2016-Jun-26 03:34N 54°54' E 018°39'1817.7
2016-Jun-26 02:34N 55°05' E 018°15'1818.2
2016-Jun-26 01:33N 55°15' E 017°48'1818.4
2016-Jun-26 00:34N 55°25' E 017°22'1918.2
2016-Jun-25 23:31N 55°36' E 016°54'5416.6
2016-Jun-25 20:15N 56°09' E 015°36'3 0.7
2016-Jun-25 16:33N 56°06' E 015°34'1616.2
2016-Jun-25 15:33N 55°56' E 015°58'1717.5
2016-Jun-25 14:33N 55°46' E 016°23'1817.6
2016-Jun-25 13:32N 55°36' E 016°49'2117.8
2016-Jun-25 12:19N 55°24' E 017°20'1418.4
2016-Jun-25 11:33N 55°16' E 017°41'1917.9
2016-Jun-25 10:29N 55°06' E 018°09'1617.8
2016-Jun-25 09:34N 54°57' E 018°33'1818.0
2016-Jun-25 08:33N 54°43' E 018°54'1413.5
2016-Jun-25 07:34N 54°32' E 018°42'7 6.6
2016-Jun-25 06:33N 54°33' E 018°30'0 0.0
2016-Jun-25 05:33N 54°33' E 018°30'7 6.9
2016-Jun-25 04:33N 54°32' E 018°42'1212.4
2016-Jun-25 03:33N 54°42' E 018°56'1414.0
2016-Jun-25 02:33N 54°52' E 018°38'1414.2
2016-Jun-25 01:33N 55°01' E 018°20'1414.3
2016-Jun-25 00:33N 55°09' E 017°60'4814.3
2016-Jun-24 21:12N 55°36' E 016°50'1014.3
2016-Jun-24 20:32N 55°41' E 016°35'1414.3
2016-Jun-24 19:32N 55°49' E 016°14'1514.4
2016-Jun-24 18:29N 55°58' E 015°52'1313.5
2016-Jun-24 17:33N 56°06' E 015°34'3 0.3
2016-Jun-24 06:33N 56°03' E 015°36'5417.9
2016-Jun-24 03:31N 55°34' E 016°58'1717.9
2016-Jun-24 02:33N 55°25' E 017°23'1918.8
2016-Jun-24 01:33N 55°15' E 017°51'1918.8
2016-Jun-24 00:33N 55°04' E 018°18'1918.8
2016-Jun-23 23:33N 54°52' E 018°44'1717.0
2016-Jun-23 22:33N 54°37' E 018°55'1414.0
2016-Jun-23 21:33N 54°32' E 018°33'1 1.5
2016-Jun-23 20:33N 54°33' E 018°30'3 3.0
2016-Jun-23 19:33N 54°32' E 018°35'1414.1
2016-Jun-23 18:34N 54°40' E 018°56'1615.8
2016-Jun-23 17:33N 54°52' E 018°38'1717.1
2016-Jun-23 16:33N 55°03' E 018°16'7817.9
2016-Jun-23 12:13N 55°47' E 016°23'1218.0
2016-Jun-23 11:33N 55°53' E 016°05'2017.6
2016-Jun-23 10:24N 56°04' E 015°34'2 0.4
2016-Jun-23 05:33N 56°03' E 015°37'3517.5
2016-Jun-23 03:34N 55°43' E 016°29'3617.9
2016-Jun-23 01:33N 55°23' E 017°21'1817.8
2016-Jun-23 00:34N 55°14' E 017°48'1818.4
2016-Jun-22 23:33N 55°05' E 018°16'1818.3
2016-Jun-22 22:33N 54°53' E 018°40'1817.8
2016-Jun-22 21:34N 54°38' E 018°56'1414.3
2016-Jun-22 20:33N 54°32' E 018°33'2 1.8
2016-Jun-22 19:32N 54°33' E 018°30'2 1.8
2016-Jun-22 18:33N 54°32' E 018°33'1414.4
2016-Jun-22 17:33N 54°39' E 018°55'1717.0
2016-Jun-22 16:33N 54°53' E 018°39'1717.4
2016-Jun-22 15:33N 55°04' E 018°15'11017.2
2016-Jun-22 09:08N 56°08' E 015°36'1 0.3
2016-Jun-22 04:33N 56°06' E 015°35'7017.2
2016-Jun-22 00:30N 55°26' E 017°16'1817.8
2016-Jun-21 23:30N 55°17' E 017°42'1817.8
2016-Jun-21 22:31N 55°07' E 018°08'1717.8
2016-Jun-21 21:33N 54°57' E 018°33'1817.9
2016-Jun-21 20:33N 54°44' E 018°54'1313.5
2016-Jun-21 19:33N 54°32' E 018°44'8 7.8
2016-Jun-21 18:32N 54°33' E 018°30'0 0.0
2016-Jun-21 17:32N 54°33' E 018°30'6 6.1
2016-Jun-21 16:33N 54°32' E 018°41'1313.2
2016-Jun-21 15:33N 54°44' E 018°52'1818.0
2016-Jun-21 14:33N 54°57' E 018°29'1817.6
2016-Jun-21 13:33N 55°08' E 018°05'10311.5
2016-Jun-21 04:33N 56°06' E 015°34'5814.5
2016-Jun-21 00:33N 55°33' E 016°59'1514.9
2016-Jun-20 23:33N 55°25' E 017°21'1515.0
2016-Jun-20 22:33N 55°16' E 017°43'1515.0
2016-Jun-20 21:33N 55°08' E 018°04'1514.9
2016-Jun-20 20:33N 54°60' E 018°26'1514.9
2016-Jun-20 19:34N 54°49' E 018°45'1413.7
2016-Jun-20 18:33N 54°37' E 018°55'1312.7
2016-Jun-20 17:33N 54°32' E 018°35'3 2.8
2016-Jun-20 16:31N 54°33' E 018°30'0 0.0
2016-Jun-20 15:31N 54°33' E 018°30'0 0.0
2016-Jun-20 14:31N 54°33' E 018°30'0 0.0
2016-Jun-20 13:31N 54°33' E 018°30'0 0.0
2016-Jun-20 12:32N 54°33' E 018°30'0 0.0
2016-Jun-20 11:32N 54°33' E 018°30'0 0.0
2016-Jun-20 10:32N 54°33' E 018°30'0 0.0
2016-Jun-20 09:31N 54°33' E 018°30'0 0.0
2016-Jun-20 08:32N 54°33' E 018°30'0 0.0
2016-Jun-20 07:31N 54°33' E 018°30'1 1.3
2016-Jun-20 06:33N 54°32' E 018°32'1212.5
2016-Jun-20 05:34N 54°36' E 018°53'1313.1
2016-Jun-20 04:33N 54°48' E 018°47'1514.6
2016-Jun-20 03:34N 54°59' E 018°30'1514.7
2016-Jun-20 02:34N 55°07' E 018°09'1514.7
2016-Jun-20 01:34N 55°16' E 017°48'1515.0
2016-Jun-20 00:33N 55°24' E 017°26'7614.4
2016-Jun-19 19:17N 56°08' E 015°36'2 1.2
2016-Jun-19 17:33N 56°10' E 015°37'11416.3
2016-Jun-19 10:34N 55°02' E 018°20'1817.9
2016-Jun-19 09:34N 54°50' E 018°43'1616.2
2016-Jun-19 08:34N 54°35' E 018°54'1312.8
2016-Jun-19 07:33N 54°32' E 018°32'1 1.1
2016-Jun-19 06:31N 54°33' E 018°30'0 0.0
2016-Jun-19 05:33N 54°33' E 018°30'8 7.6
2016-Jun-19 04:34N 54°32' E 018°43'1413.7
2016-Jun-19 03:33N 54°45' E 018°52'1817.9
2016-Jun-19 02:33N 54°58' E 018°31'1818.0
2016-Jun-19 01:34N 55°08' E 018°04'9017.8
2016-Jun-18 20:30N 55°58' E 015°52'1314.1
2016-Jun-18 19:33N 56°08' E 015°36'2 1.1
2016-Jun-18 17:17N 56°10' E 015°38'1413.0
2016-Jun-18 16:14N 55°58' E 015°50'9816.9
2016-Jun-18 10:26N 55°05' E 018°15'1416.3
2016-Jun-18 09:34N 54°56' E 018°36'1616.4
2016-Jun-18 08:33N 54°44' E 018°54'1413.7
2016-Jun-18 07:34N 54°32' E 018°44'8 7.7
2016-Jun-18 06:32N 54°33' E 018°30'0 0.0
2016-Jun-18 05:32N 54°33' E 018°30'7 6.8
2016-Jun-18 04:33N 54°32' E 018°42'1211.6
2016-Jun-18 03:34N 54°41' E 018°56'1414.0
2016-Jun-18 02:33N 54°52' E 018°41'1413.8
2016-Jun-18 01:33N 55°02' E 018°25'11614.0
2016-Jun-17 17:18N 56°07' E 015°35'17 1.3
2016-Jun-17 04:32N 55°56' E 015°57'1413.8
2016-Jun-17 03:32N 55°48' E 016°17'5914.6
2016-Jun-16 23:31N 55°17' E 017°45'1717.0
2016-Jun-16 22:32N 55°08' E 018°09'1717.1
2016-Jun-16 21:33N 54°59' E 018°34'1717.2
2016-Jun-16 20:33N 54°47' E 018°56'1414.5
2016-Jun-16 19:33N 54°33' E 018°51'1211.7
2016-Jun-16 18:33N 54°33' E 018°30'0 0.1
2016-Jun-16 17:33N 54°33' E 018°30'7 7.0
2016-Jun-16 16:34N 54°32' E 018°42'1514.8
2016-Jun-16 15:33N 54°44' E 018°58'1615.9
2016-Jun-16 14:33N 54°55' E 018°39'1616.1
2016-Jun-16 13:33N 55°04' E 018°15'  
Track history (hours):
 
Tides and Currents Weather Stations Pressure Air Temp Water Temp Dewpoint Dewpoint Depression Visibility Wind Speed Wind Dir Waves Ship Positions

Stena Germanica

Last reported at 2016-Jun-26 11:19 UTC. Time now 2016-Jun-26 15:39 UTC.
Position N 55°07' E 018°09'.

Length 176 m; draft 6.7 m.

Type: Ship (hazmat cat A). MMSI: 265292000.

Date/timePositionNaut miles runAvg speedWind from/ knotsBaromVisibWave heightAir tempDewpointWater temp
2016-Jun-26 11:19N 55°07' E 018°09'1418.2
2016-Jun-26 10:33N 54°59' E 018°29'1817.8
2016-Jun-26 09:33N 54°46' E 018°50'1414.3
2016-Jun-26 08:34N 54°32' E 018°47'10 9.3
2016-Jun-26 07:31N 54°33' E 018°30'0 0.0
2016-Jun-26 06:31N 54°33' E 018°30'4 3.7
2016-Jun-26 05:34N 54°32' E 018°36'1313.4
2016-Jun-26 04:33N 54°40' E 018°56'1717.2
2016-Jun-26 03:34N 54°54' E 018°39'1817.7
2016-Jun-26 02:34N 55°05' E 018°15'1818.2
2016-Jun-26 01:33N 55°15' E 017°48'1818.4
2016-Jun-26 00:34N 55°25' E 017°22'1918.2
2016-Jun-25 23:31N 55°36' E 016°54'5416.6
2016-Jun-25 20:15N 56°09' E 015°36'3 0.7
2016-Jun-25 16:33N 56°06' E 015°34'1616.2
2016-Jun-25 15:33N 55°56' E 015°58'1717.5
2016-Jun-25 14:33N 55°46' E 016°23'1817.6
2016-Jun-25 13:32N 55°36' E 016°49'2117.8
2016-Jun-25 12:19N 55°24' E 017°20'1418.4
2016-Jun-25 11:33N 55°16' E 017°41'1917.9
2016-Jun-25 10:29N 55°06' E 018°09'1617.8
2016-Jun-25 09:34N 54°57' E 018°33'1818.0
2016-Jun-25 08:33N 54°43' E 018°54'1413.5
2016-Jun-25 07:34N 54°32' E 018°42'7 6.6
2016-Jun-25 06:33N 54°33' E 018°30'0 0.0
2016-Jun-25 05:33N 54°33' E 018°30'7 6.9
2016-Jun-25 04:33N 54°32' E 018°42'1212.4
2016-Jun-25 03:33N 54°42' E 018°56'1414.0
2016-Jun-25 02:33N 54°52' E 018°38'1414.2
2016-Jun-25 01:33N 55°01' E 018°20'1414.3
2016-Jun-25 00:33N 55°09' E 017°60'4814.3
2016-Jun-24 21:12N 55°36' E 016°50'1014.3
2016-Jun-24 20:32N 55°41' E 016°35'1414.3
2016-Jun-24 19:32N 55°49' E 016°14'1514.4
2016-Jun-24 18:29N 55°58' E 015°52'1313.5
2016-Jun-24 17:33N 56°06' E 015°34'3 0.3
2016-Jun-24 06:33N 56°03' E 015°36'5417.9
2016-Jun-24 03:31N 55°34' E 016°58'1717.9
2016-Jun-24 02:33N 55°25' E 017°23'1918.8
2016-Jun-24 01:33N 55°15' E 017°51'1918.8
2016-Jun-24 00:33N 55°04' E 018°18'1918.8
2016-Jun-23 23:33N 54°52' E 018°44'1717.0
2016-Jun-23 22:33N 54°37' E 018°55'1414.0
2016-Jun-23 21:33N 54°32' E 018°33'1 1.5
2016-Jun-23 20:33N 54°33' E 018°30'3 3.0
2016-Jun-23 19:33N 54°32' E 018°35'1414.1
2016-Jun-23 18:34N 54°40' E 018°56'1615.8
2016-Jun-23 17:33N 54°52' E 018°38'1717.1
2016-Jun-23 16:33N 55°03' E 018°16'7817.9
2016-Jun-23 12:13N 55°47' E 016°23'1218.0
2016-Jun-23 11:33N 55°53' E 016°05'2017.6
2016-Jun-23 10:24N 56°04' E 015°34'2 0.4
2016-Jun-23 05:33N 56°03' E 015°37'3517.5
2016-Jun-23 03:34N 55°43' E 016°29'3617.9
2016-Jun-23 01:33N 55°23' E 017°21'1817.8
2016-Jun-23 00:34N 55°14' E 017°48'1818.4
2016-Jun-22 23:33N 55°05' E 018°16'1818.3
2016-Jun-22 22:33N 54°53' E 018°40'1817.8
2016-Jun-22 21:34N 54°38' E 018°56'1414.3
2016-Jun-22 20:33N 54°32' E 018°33'2 1.8
2016-Jun-22 19:32N 54°33' E 018°30'2 1.8
2016-Jun-22 18:33N 54°32' E 018°33'1414.4
2016-Jun-22 17:33N 54°39' E 018°55'1717.0
2016-Jun-22 16:33N 54°53' E 018°39'1717.4
2016-Jun-22 15:33N 55°04' E 018°15'11017.2
2016-Jun-22 09:08N 56°08' E 015°36'1 0.3
2016-Jun-22 04:33N 56°06' E 015°35'7017.2
2016-Jun-22 00:30N 55°26' E 017°16'1817.8
2016-Jun-21 23:30N 55°17' E 017°42'1817.8
2016-Jun-21 22:31N 55°07' E 018°08'1717.8
2016-Jun-21 21:33N 54°57' E 018°33'1817.9
2016-Jun-21 20:33N 54°44' E 018°54'1313.5
2016-Jun-21 19:33N 54°32' E 018°44'8 7.8
2016-Jun-21 18:32N 54°33' E 018°30'0 0.0
2016-Jun-21 17:32N 54°33' E 018°30'6 6.1
2016-Jun-21 16:33N 54°32' E 018°41'1313.2
2016-Jun-21 15:33N 54°44' E 018°52'1818.0
2016-Jun-21 14:33N 54°57' E 018°29'1817.6
2016-Jun-21 13:33N 55°08' E 018°05'10311.5
2016-Jun-21 04:33N 56°06' E 015°34'5814.5
2016-Jun-21 00:33N 55°33' E 016°59'1514.9
2016-Jun-20 23:33N 55°25' E 017°21'1515.0
2016-Jun-20 22:33N 55°16' E 017°43'1515.0
2016-Jun-20 21:33N 55°08' E 018°04'1514.9
2016-Jun-20 20:33N 54°60' E 018°26'1514.9
2016-Jun-20 19:34N 54°49' E 018°45'1413.7
2016-Jun-20 18:33N 54°37' E 018°55'1312.7
2016-Jun-20 17:33N 54°32' E 018°35'3 2.8
2016-Jun-20 16:31N 54°33' E 018°30'0 0.0
2016-Jun-20 15:31N 54°33' E 018°30'0 0.0
2016-Jun-20 14:31N 54°33' E 018°30'0 0.0
2016-Jun-20 13:31N 54°33' E 018°30'0 0.0
2016-Jun-20 12:32N 54°33' E 018°30'0 0.0
2016-Jun-20 11:32N 54°33' E 018°30'0 0.0
2016-Jun-20 10:32N 54°33' E 018°30'0 0.0
2016-Jun-20 09:31N 54°33' E 018°30'0 0.0
2016-Jun-20 08:32N 54°33' E 018°30'0 0.0
2016-Jun-20 07:31N 54°33' E 018°30'1 1.3
2016-Jun-20 06:33N 54°32' E 018°32'1212.5
2016-Jun-20 05:34N 54°36' E 018°53'1313.1
2016-Jun-20 04:33N 54°48' E 018°47'1514.6
2016-Jun-20 03:34N 54°59' E 018°30'1514.7
2016-Jun-20 02:34N 55°07' E 018°09'1514.7
2016-Jun-20 01:34N 55°16' E 017°48'1515.0
2016-Jun-20 00:33N 55°24' E 017°26'7614.4
2016-Jun-19 19:17N 56°08' E 015°36'2 1.2
2016-Jun-19 17:33N 56°10' E 015°37'11416.3
2016-Jun-19 10:34N 55°02' E 018°20'1817.9
2016-Jun-19 09:34N 54°50' E 018°43'1616.2
2016-Jun-19 08:34N 54°35' E 018°54'1312.8
2016-Jun-19 07:33N 54°32' E 018°32'1 1.1
2016-Jun-19 06:31N 54°33' E 018°30'0 0.0
2016-Jun-19 05:33N 54°33' E 018°30'8 7.6
2016-Jun-19 04:34N 54°32' E 018°43'1413.7
2016-Jun-19 03:33N 54°45' E 018°52'1817.9
2016-Jun-19 02:33N 54°58' E 018°31'1818.0
2016-Jun-19 01:34N 55°08' E 018°04'9017.8
2016-Jun-18 20:30N 55°58' E 015°52'1314.1
2016-Jun-18 19:33N 56°08' E 015°36'2 1.1
2016-Jun-18 17:17N 56°10' E 015°38'1413.0
2016-Jun-18 16:14N 55°58' E 015°50'9816.9
2016-Jun-18 10:26N 55°05' E 018°15'1416.3
2016-Jun-18 09:34N 54°56' E 018°36'1616.4
2016-Jun-18 08:33N 54°44' E 018°54'1413.7
2016-Jun-18 07:34N 54°32' E 018°44'8 7.7
2016-Jun-18 06:32N 54°33' E 018°30'0 0.0
2016-Jun-18 05:32N 54°33' E 018°30'7 6.8
2016-Jun-18 04:33N 54°32' E 018°42'1211.6
2016-Jun-18 03:34N 54°41' E 018°56'1414.0
2016-Jun-18 02:33N 54°52' E 018°41'1413.8
2016-Jun-18 01:33N 55°02' E 018°25'11614.0
2016-Jun-17 17:18N 56°07' E 015°35'17 1.3
2016-Jun-17 04:32N 55°56' E 015°57'1413.8
2016-Jun-17 03:32N 55°48' E 016°17'5914.6
2016-Jun-16 23:31N 55°17' E 017°45'1717.0
2016-Jun-16 22:32N 55°08' E 018°09'1717.1
2016-Jun-16 21:33N 54°59' E 018°34'1717.2
2016-Jun-16 20:33N 54°47' E 018°56'1414.5
2016-Jun-16 19:33N 54°33' E 018°51'1211.7
2016-Jun-16 18:33N 54°33' E 018°30'0 0.1
2016-Jun-16 17:33N 54°33' E 018°30'7 7.0
2016-Jun-16 16:34N 54°32' E 018°42'1514.8
2016-Jun-16 15:33N 54°44' E 018°58'1615.9
2016-Jun-16 14:33N 54°55' E 018°39'1616.1
2016-Jun-16 13:33N 55°04' E 018°15'  

Dump ship's entire track history